Weather at Newcastle Airport

Public forecast

Using degrees Celsius for public forecast. Weather courtesy of forecast.io.

Current aviation weather report (METAR) for Newcastle Airport

Report is more than 6 hours old.

2022/11/14 15:20 (retrieved 2 years ago)

EGNT 141520Z 17005KT 120V220 3400 BR OVC002 09/09 Q1005

Aviation forecast (TAF) for Newcastle Airport

Forecast is more than 12 hours old.

2023/02/22 18:00 (retrieved 1 year ago)

TAF EGNT 221654Z 2218/2318 36010KT 9999 SCT020 PROB40 TEMPO 2218/2306 34015G28KT PROB30 TEMPO 2218/2221 7000 -SHRA BKN014 TEMPO 2221/2301 4000 SHRA RA BKN008 BECMG 2312/2315 27009KT